Terminal Aerodrome Forecast
Issued by NWS

Home | Current Version | Previous Version | Graphics & Text | Print | Product List | Glossary On
Versions: 1 2 3 4 5 6 7 8 9 10 11 12 13 14 15 16 17 18
000
FTUS43 KICT 250402 AAB
TAFRSL
TAF AMD
KRSL 250402Z 2504/2524 33015G22KT P6SM -SHRA OVC015
     FM250700 33013KT P6SM VCSH OVC008
     FM251800 35011KT P6SM OVC025
     FM252300 36009KT P6SM BKN040=

USA.gov is the U.S. government's official web portal to all federal, state and local government web resources and services.